Terminal Aerodrome Forecast
Issued by NWS

Current Version | Previous Version | Text Only | Print | Product List | Glossary On
Versions: 1 2 3 4 5 6 7 8 9 10 11 12 13 14 15 16 17 18 19 20
000
FTUS42 KTAE 271700
TAFVLD
TAF
KVLD 271724Z 2718/2818 04008KT P6SM SCT030 BKN250
     FM280500 05008KT P6SM BKN035
     FM281200 05010KT P6SM BKN025 OVC030=

USA.gov is the U.S. government's official web portal to all federal, state and local government web resources and services.